createdAt,value
2019-04-29T00:00:51.298Z,4.87
2019-04-29T00:03:20.722Z,5.97
2019-04-29T00:05:50.189Z,7.87
2019-04-29T00:08:19.864Z,5.63
2019-04-29T00:10:49.268Z,9.30
2019-04-29T00:13:19.452Z,6.77
2019-04-29T00:15:58.594Z,4.40
2019-04-29T00:18:39.169Z,6.37
2019-04-29T00:21:08.560Z,6.33
2019-04-29T00:23:37.912Z,6.43
2019-04-29T00:26:07.309Z,6.53
2019-04-29T00:28:36.674Z,5.47
2019-04-29T00:31:06.328Z,7.77
2019-04-29T00:33:35.697Z,5.03
2019-04-29T00:36:05.101Z,8.80
2019-04-29T00:38:52.350Z,8.33
2019-04-29T00:41:38.627Z,9.60
2019-04-29T00:44:09.947Z,6.43
2019-04-29T00:46:39.369Z,3.80
2019-04-29T00:49:08.887Z,7.10
2019-04-29T00:51:38.300Z,8.67
2019-04-29T00:54:18.272Z,7.07
2019-04-29T00:56:47.590Z,5.30
2019-04-29T00:59:16.920Z,6.07
2019-04-29T01:01:46.359Z,6.50
2019-04-29T01:04:15.781Z,7.47
2019-04-29T01:06:45.143Z,6.00
2019-04-29T01:09:14.693Z,4.07
2019-04-29T01:11:44.102Z,6.07
2019-04-29T01:14:13.468Z,9.40
2019-04-29T01:16:42.840Z,8.10
2019-04-29T01:19:12.268Z,7.37
2019-04-29T01:21:41.647Z,4.50
2019-04-29T01:24:11.075Z,7.80
2019-04-29T01:27:01.034Z,6.33
2019-04-29T01:29:30.587Z,6.13
2019-04-29T01:32:00.065Z,5.13
2019-04-29T01:34:34.306Z,6.50
2019-04-29T01:37:03.674Z,10.17
2019-04-29T01:39:47.277Z,5.17
2019-04-29T01:42:23.711Z,6.20
2019-04-29T01:44:53.141Z,6.70
2019-04-29T01:47:22.509Z,4.13
2019-04-29T01:49:51.863Z,7.67
2019-04-29T01:52:21.304Z,3.43
2019-04-29T01:54:50.763Z,8.00
2019-04-29T01:57:20.163Z,5.63
2019-04-29T01:59:49.621Z,6.03
2019-04-29T02:02:19.060Z,6.17
2019-04-29T02:04:48.497Z,6.00
2019-04-29T02:07:17.948Z,5.47
2019-04-29T02:10:11.431Z,6.73
2019-04-29T02:12:40.802Z,8.23
2019-04-29T02:15:10.221Z,7.30
2019-04-29T02:17:39.590Z,6.47
2019-04-29T02:20:09.217Z,8.10
2019-04-29T02:22:53.635Z,5.73
2019-04-29T02:25:28.829Z,4.63
2019-04-29T02:27:58.196Z,6.97
2019-04-29T02:30:42.180Z,5.27
2019-04-29T02:33:11.533Z,4.00
2019-04-29T02:35:41.137Z,5.53
2019-04-29T02:38:15.266Z,7.37
2019-04-29T02:40:51.709Z,11.10
2019-04-29T02:43:24.845Z,5.37
2019-04-29T02:45:54.300Z,4.60
2019-04-29T02:48:23.711Z,4.67
2019-04-29T02:50:53.149Z,4.80
2019-04-29T02:53:22.592Z,7.70
2019-04-29T02:55:53.754Z,6.93
2019-04-29T02:58:29.090Z,6.80
2019-04-29T03:01:17.500Z,5.83
2019-04-29T03:04:08.646Z,5.20
2019-04-29T03:06:38.113Z,7.40
2019-04-29T03:09:07.947Z,9.23
2019-04-29T03:11:37.303Z,9.77
2019-04-29T03:14:06.673Z,5.43
2019-04-29T03:16:36.034Z,6.53
2019-04-29T03:19:10.182Z,6.83
2019-04-29T03:21:47.541Z,4.83
2019-04-29T03:24:17.012Z,8.33
2019-04-29T03:26:46.348Z,8.17
2019-04-29T03:29:24.980Z,6.20
2019-04-29T03:31:55.770Z,5.63
2019-04-29T03:34:25.334Z,9.57
2019-04-29T03:36:54.816Z,8.80
2019-04-29T03:39:24.242Z,6.20
2019-04-29T03:41:53.662Z,5.73
2019-04-29T03:44:23.051Z,6.43
2019-04-29T03:46:52.407Z,4.63
2019-04-29T03:49:21.781Z,5.57
2019-04-29T03:51:51.131Z,6.37
2019-04-29T03:54:20.508Z,6.07
2019-04-29T03:56:49.860Z,7.40
2019-04-29T03:59:19.215Z,8.30
2019-04-29T04:01:55.977Z,9.50
2019-04-29T04:04:43.008Z,5.53
2019-04-29T04:07:30.319Z,7.30
2019-04-29T04:09:59.776Z,8.10
2019-04-29T04:12:29.130Z,7.77
2019-04-29T04:14:58.511Z,6.70
2019-04-29T04:17:42.899Z,9.13
2019-04-29T04:20:12.682Z,8.80
2019-04-29T04:22:48.577Z,6.77
2019-04-29T04:25:18.312Z,7.13
2019-04-29T04:27:48.165Z,7.37
2019-04-29T04:30:18.892Z,7.67
2019-04-29T04:32:48.339Z,8.93
2019-04-29T04:35:17.779Z,6.37
2019-04-29T04:37:47.144Z,9.77
2019-04-29T04:40:21.005Z,5.73
2019-04-29T04:42:50.546Z,8.93
2019-04-29T04:45:20.001Z,7.30
2019-04-29T04:47:49.354Z,8.60
2019-04-29T04:50:18.908Z,5.30
2019-04-29T04:52:48.271Z,7.13
2019-04-29T04:55:18.777Z,7.17
2019-04-29T04:57:48.174Z,5.70
2019-04-29T05:00:21.885Z,7.87
2019-04-29T05:02:51.307Z,7.77
2019-04-29T05:05:20.685Z,6.70
2019-04-29T05:07:50.048Z,5.70
2019-04-29T05:10:19.749Z,6.47
2019-04-29T05:12:49.112Z,5.73
2019-04-29T05:15:18.567Z,7.67
2019-04-29T05:17:48.117Z,7.60
2019-04-29T05:20:17.588Z,5.77
2019-04-29T05:22:59.499Z,8.67
2019-04-29T05:25:33.537Z,7.63
2019-04-29T05:28:03.590Z,7.60
2019-04-29T05:30:33.360Z,5.10
2019-04-29T05:33:02.794Z,6.63
2019-04-29T05:35:40.215Z,8.93
2019-04-29T05:38:25.427Z,6.37
2019-04-29T05:40:56.833Z,8.40
2019-04-29T05:43:34.004Z,6.73
2019-04-29T05:46:23.305Z,6.50
2019-04-29T05:48:52.988Z,9.90
2019-04-29T05:51:34.478Z,6.10
2019-04-29T05:54:04.645Z,7.70
2019-04-29T05:56:34.030Z,9.33
2019-04-29T05:59:03.461Z,8.00
2019-04-29T06:01:32.848Z,8.10
2019-04-29T06:04:02.273Z,7.03
2019-04-29T06:06:31.654Z,5.20
2019-04-29T06:09:01.013Z,5.63
2019-04-29T06:11:30.464Z,6.97
2019-04-29T06:13:59.798Z,7.33
2019-04-29T06:16:29.181Z,9.70
2019-04-29T06:19:00.413Z,6.07
2019-04-29T06:21:29.635Z,7.27
2019-04-29T06:23:59.408Z,7.17
2019-04-29T06:26:30.073Z,5.87
2019-04-29T06:28:59.474Z,6.73
2019-04-29T06:31:28.891Z,6.63
2019-04-29T06:34:00.645Z,8.50
2019-04-29T06:36:29.419Z,6.67
2019-04-29T06:38:58.805Z,8.50
2019-04-29T06:41:28.160Z,7.70
2019-04-29T06:44:00.687Z,8.77
2019-04-29T06:46:28.592Z,7.37
2019-04-29T06:49:09.603Z,6.30
2019-04-29T06:51:29.120Z,7.33
2019-04-29T06:53:58.495Z,6.53
2019-04-29T06:56:28.004Z,7.53
2019-04-29T06:58:58.645Z,14.10
2019-04-29T07:01:28.007Z,7.90
2019-04-29T07:03:59.859Z,9.63
2019-04-29T07:06:28.458Z,8.53
2019-04-29T07:08:57.821Z,5.43
2019-04-29T07:11:27.200Z,7.03
2019-04-29T07:13:57.681Z,8.00
2019-04-29T07:16:31.769Z,11.17
2019-04-29T07:18:58.675Z,8.70
2019-04-29T07:21:28.072Z,8.73
2019-04-29T07:23:57.509Z,8.50
2019-04-29T07:26:26.895Z,11.07
2019-04-29T07:28:56.316Z,10.90
2019-04-29T07:31:28.256Z,9.80
2019-04-29T07:33:57.923Z,8.93
2019-04-29T07:36:27.867Z,11.70
2019-04-29T07:38:57.235Z,8.87
2019-04-29T07:41:26.673Z,8.33
2019-04-29T07:43:56.098Z,6.93
2019-04-29T07:46:57.005Z,12.10
2019-04-29T07:49:12.756Z,11.60
2019-04-29T07:51:42.687Z,9.50
2019-04-29T07:54:16.130Z,9.27
2019-04-29T07:56:43.684Z,7.70
2019-04-29T07:59:13.128Z,8.87
2019-04-29T08:01:42.569Z,10.73
2019-04-29T08:04:12.014Z,11.77
2019-04-29T08:06:42.977Z,9.53
2019-04-29T08:09:13.125Z,8.60
2019-04-29T08:11:42.836Z,10.83
2019-04-29T08:14:12.638Z,11.73
2019-04-29T08:16:42.098Z,11.37
2019-04-29T08:19:11.581Z,12.47
2019-04-29T08:21:41.025Z,9.67
2019-04-29T08:24:11.604Z,11.23
2019-04-29T08:26:47.504Z,9.77
2019-04-29T08:29:12.640Z,11.20
2019-04-29T08:31:42.004Z,11.37
2019-04-29T08:34:11.463Z,11.87
2019-04-29T08:36:40.861Z,8.70
2019-04-29T08:39:10.352Z,9.80
2019-04-29T08:41:39.790Z,8.87
2019-04-29T08:44:18.212Z,11.97
2019-04-29T08:46:54.032Z,9.23
2019-04-29T08:49:23.450Z,9.50
2019-04-29T08:51:52.825Z,12.33
2019-04-29T08:54:22.280Z,11.83
2019-04-29T08:57:02.796Z,10.93
2019-04-29T08:59:24.506Z,7.90
2019-04-29T09:01:54.158Z,10.10
2019-04-29T09:04:23.550Z,15.57
2019-04-29T09:06:53.046Z,9.50
2019-04-29T09:09:29.118Z,8.80
2019-04-29T09:11:53.466Z,10.67
2019-04-29T09:14:22.814Z,11.80
2019-04-29T09:16:52.196Z,9.33
2019-04-29T09:19:21.613Z,12.90
2019-04-29T09:21:54.829Z,10.20
2019-04-29T09:24:24.184Z,7.57
2019-04-29T09:27:04.988Z,7.67
2019-04-29T09:29:34.601Z,10.40
2019-04-29T09:32:04.559Z,8.07
2019-04-29T09:34:34.106Z,8.87
2019-04-29T09:37:03.535Z,9.07
2019-04-29T09:39:42.974Z,11.47
2019-04-29T09:42:31.061Z,9.93
2019-04-29T09:45:18.624Z,14.20
2019-04-29T09:47:45.549Z,7.53
2019-04-29T09:50:15.052Z,8.97
2019-04-29T09:52:44.439Z,6.03
2019-04-29T09:55:13.975Z,7.53
2019-04-29T09:57:43.362Z,9.97
2019-04-29T10:00:20.763Z,10.90
2019-04-29T10:02:58.281Z,6.03
2019-04-29T10:05:33.014Z,6.03
2019-04-29T10:08:03.527Z,7.33
2019-04-29T10:10:33.039Z,8.37
2019-04-29T10:13:02.445Z,6.13
2019-04-29T10:15:45.701Z,4.93
2019-04-29T10:18:29.637Z,10.73
2019-04-29T10:20:59.319Z,10.10
2019-04-29T10:23:38.250Z,9.10
2019-04-29T10:26:07.748Z,9.83
2019-04-29T10:28:41.703Z,13.17
2019-04-29T10:31:11.325Z,10.90
2019-04-29T10:33:40.799Z,10.73
2019-04-29T10:36:10.171Z,12.30
2019-04-29T10:38:40.458Z,11.87
2019-04-29T10:41:19.013Z,7.60
2019-04-29T10:44:08.690Z,9.07
2019-04-29T10:47:03.276Z,6.83
2019-04-29T10:49:39.162Z,11.07
2019-04-29T10:52:08.082Z,5.83
2019-04-29T10:54:37.450Z,6.37
2019-04-29T10:57:10.514Z,7.07
2019-04-29T10:59:44.571Z,8.03
2019-04-29T11:02:32.062Z,8.43
2019-04-29T11:05:19.709Z,5.10
2019-04-29T11:07:52.547Z,7.40
2019-04-29T11:10:27.898Z,7.40
2019-04-29T11:12:57.476Z,5.77
2019-04-29T11:15:37.263Z,5.73
2019-04-29T11:18:07.102Z,4.87
2019-04-29T11:20:36.599Z,3.43
2019-04-29T11:23:21.369Z,7.30
2019-04-29T11:26:22.772Z,7.93
2019-04-29T11:28:53.108Z,5.77
2019-04-29T11:31:22.574Z,8.10
2019-04-29T11:34:26.178Z,5.73
2019-04-29T11:36:55.614Z,6.93
2019-04-29T11:39:25.049Z,6.20
2019-04-29T11:41:59.210Z,6.73
2019-04-29T11:44:26.631Z,5.43
2019-04-29T11:46:56.882Z,6.87
2019-04-29T11:49:41.197Z,6.03
2019-04-29T11:52:10.638Z,5.00
2019-04-29T11:54:40.012Z,8.90
2019-04-29T11:57:13.087Z,9.37
2019-04-29T11:59:54.487Z,7.13
2019-04-29T12:02:44.947Z,7.90
2019-04-29T12:05:12.158Z,7.70
2019-04-29T12:07:41.721Z,6.40
2019-04-29T12:10:11.732Z,8.70
2019-04-29T12:12:43.625Z,9.63
2019-04-29T12:15:19.877Z,8.13
2019-04-29T12:18:07.484Z,7.43
2019-04-29T12:21:11.462Z,6.97
2019-04-29T12:23:40.797Z,6.13
2019-04-29T12:26:10.569Z,5.17
2019-04-29T12:28:42.868Z,4.70
2019-04-29T12:31:32.366Z,4.93
2019-04-29T12:34:23.055Z,6.27
2019-04-29T12:36:56.768Z,5.43
2019-04-29T12:39:55.007Z,5.83
2019-04-29T12:42:46.461Z,5.37
2019-04-29T12:45:23.610Z,6.37
2019-04-29T12:47:52.978Z,5.93
2019-04-29T12:50:23.123Z,4.40
2019-04-29T12:52:52.661Z,5.33
2019-04-29T12:55:43.735Z,5.30
2019-04-29T12:57:59.532Z,5.27
2019-04-29T13:00:31.491Z,6.03
2019-04-29T13:03:20.055Z,5.67
2019-04-29T13:06:02.594Z,4.57
2019-04-29T13:08:36.181Z,5.13
2019-04-29T13:11:06.954Z,4.97
2019-04-29T13:13:36.308Z,4.33
2019-04-29T13:16:23.773Z,1.80
2019-04-29T13:19:20.581Z,3.90
2019-04-29T13:21:49.571Z,3.57
2019-04-29T13:24:26.530Z,4.53
2019-04-29T13:26:50.093Z,4.73
2019-04-29T13:29:27.008Z,4.37
2019-04-29T13:31:50.687Z,5.13
2019-04-29T13:34:33.245Z,3.17
2019-04-29T13:37:07.383Z,2.83
2019-04-29T13:39:39.593Z,3.70
2019-04-29T13:42:09.214Z,4.50
2019-04-29T13:44:41.801Z,4.27
2019-04-29T13:47:29.213Z,5.90
2019-04-29T13:50:17.267Z,3.23
2019-04-29T13:52:33.354Z,6.83
2019-04-29T13:55:16.563Z,4.20
2019-04-29T13:57:33.932Z,4.60
2019-04-29T14:00:24.662Z,5.17
2019-04-29T14:02:59.351Z,4.83
2019-04-29T14:05:32.510Z,3.90
2019-04-29T14:08:00.019Z,3.13
2019-04-29T14:10:29.446Z,4.23
2019-04-29T14:13:09.620Z,5.17
2019-04-29T14:15:33.999Z,5.83
2019-04-29T14:18:01.529Z,5.53
2019-04-29T14:20:31.343Z,4.70
2019-04-29T14:23:00.694Z,5.00
2019-04-29T14:25:30.039Z,6.17
2019-04-29T14:27:59.444Z,5.40
2019-04-29T14:30:38.546Z,4.53
2019-04-29T14:33:02.066Z,5.60
2019-04-29T14:35:49.959Z,4.80
2019-04-29T14:38:19.322Z,4.23
2019-04-29T14:40:48.747Z,6.00
2019-04-29T14:43:35.851Z,5.87
2019-04-29T14:46:30.735Z,5.17
2019-04-29T14:49:07.290Z,5.43
2019-04-29T14:51:38.036Z,4.03
2019-04-29T14:54:07.667Z,5.30
2019-04-29T14:56:37.166Z,6.37
2019-04-29T14:59:07.624Z,7.03
2019-04-29T15:01:45.842Z,6.67
2019-04-29T15:04:18.963Z,5.60
2019-04-29T15:06:48.328Z,5.47
2019-04-29T15:09:19.985Z,6.90
2019-04-29T15:12:03.423Z,7.80
2019-04-29T15:15:00.786Z,8.43
2019-04-29T15:17:40.411Z,6.43
2019-04-29T15:20:18.696Z,6.77
2019-04-29T15:22:48.095Z,5.33
2019-04-29T15:25:21.012Z,4.17
2019-04-29T15:27:48.622Z,5.40
2019-04-29T15:30:18.327Z,6.33
2019-04-29T15:32:47.710Z,5.83
2019-04-29T15:35:19.922Z,5.87
2019-04-29T15:37:48.322Z,6.87
2019-04-29T15:40:20.672Z,6.40
2019-04-29T15:42:52.737Z,6.00
2019-04-29T15:45:19.905Z,5.57
2019-04-29T15:47:49.357Z,7.23
2019-04-29T15:50:19.625Z,6.00
2019-04-29T15:52:49.129Z,5.03
2019-04-29T15:55:18.607Z,5.60
2019-04-29T15:57:50.421Z,8.07
2019-04-29T16:00:22.523Z,6.47
2019-04-29T16:02:51.285Z,7.07
2019-04-29T16:06:19.284Z,5.20
2019-04-29T16:08:45.798Z,5.30
2019-04-29T16:11:33.724Z,4.80
2019-04-29T16:14:09.592Z,4.63
2019-04-29T16:16:35.965Z,5.07
2019-04-29T16:19:08.130Z,5.17
2019-04-29T16:21:39.058Z,6.00
2019-04-29T16:24:24.920Z,7.07
2019-04-29T16:26:38.968Z,7.10
2019-04-29T16:29:13.229Z,5.17
2019-04-29T16:31:39.429Z,5.60
2019-04-29T16:34:08.821Z,6.40
2019-04-29T16:36:43.803Z,5.77
2019-04-29T16:39:09.590Z,6.20
2019-04-29T16:42:01.293Z,6.27
2019-04-29T16:44:36.247Z,6.60
2019-04-29T16:47:07.277Z,7.33
2019-04-29T16:49:33.180Z,7.73
2019-04-29T16:52:07.280Z,4.43
2019-04-29T16:54:36.818Z,6.27
2019-04-29T16:57:07.422Z,6.17
2019-04-29T16:59:36.833Z,4.90
2019-04-29T17:02:06.269Z,5.30
2019-04-29T17:04:35.628Z,7.27
2019-04-29T17:07:13.827Z,5.60
2019-04-29T17:09:58.148Z,6.57
2019-04-29T17:12:35.695Z,5.80
2019-04-29T17:15:14.822Z,4.53
2019-04-29T17:17:31.488Z,5.47
2019-04-29T17:20:03.493Z,5.07
2019-04-29T17:22:35.601Z,6.93
2019-04-29T17:25:04.333Z,6.90
2019-04-29T17:27:50.854Z,7.67
2019-04-29T17:30:38.416Z,6.27
2019-04-29T17:33:26.597Z,6.20
2019-04-29T17:35:47.853Z,4.73
2019-04-29T17:38:18.083Z,5.30
2019-04-29T17:40:51.116Z,8.13
2019-04-29T17:43:38.288Z,5.50
2019-04-29T17:46:25.748Z,6.63
2019-04-29T17:49:02.776Z,5.33
2019-04-29T17:51:33.967Z,5.57
2019-04-29T17:54:05.404Z,6.13
2019-04-29T17:56:47.781Z,7.53
2019-04-29T17:59:40.733Z,6.07
2019-04-29T18:02:29.318Z,8.03
2019-04-29T18:05:16.891Z,6.40
2019-04-29T18:07:52.092Z,6.53
2019-04-29T18:10:35.102Z,6.97
2019-04-29T18:13:06.559Z,6.17
2019-04-29T18:15:57.924Z,5.87
2019-04-29T18:18:17.687Z,6.77
2019-04-29T18:21:43.273Z,6.70
2019-04-29T18:24:19.991Z,6.77
2019-04-29T18:26:56.935Z,7.03
2019-04-29T18:29:26.487Z,6.23
2019-04-29T18:31:56.127Z,8.67
2019-04-29T18:34:29.375Z,6.83
2019-04-29T18:37:00.443Z,6.63
2019-04-29T18:39:31.612Z,6.80
2019-04-29T18:42:03.363Z,5.00
2019-04-29T18:44:32.658Z,6.77
2019-04-29T18:47:02.219Z,6.00
2019-04-29T18:49:31.874Z,6.50
2019-04-29T18:52:02.143Z,5.60
2019-04-29T18:54:32.638Z,6.43
2019-04-29T18:57:02.135Z,7.07
2019-04-29T18:59:33.436Z,6.90
2019-04-29T19:02:07.734Z,6.60
2019-04-29T19:04:46.819Z,6.83
2019-04-29T19:07:17.126Z,6.93
2019-04-29T19:09:47.237Z,7.37
2019-04-29T19:12:16.898Z,7.77
2019-04-29T19:14:47.804Z,6.10
2019-04-29T19:17:17.513Z,8.73
2019-04-29T19:19:47.001Z,7.97
2019-04-29T19:22:16.509Z,5.70
2019-04-29T19:24:48.025Z,6.47
2019-04-29T19:27:17.461Z,7.47
2019-04-29T19:29:47.037Z,5.80
2019-04-29T19:32:18.834Z,6.57
2019-04-29T19:34:50.202Z,5.57
2019-04-29T19:37:19.280Z,6.97
2019-04-29T19:39:52.497Z,7.47
2019-04-29T19:42:29.085Z,7.57
2019-04-29T19:44:51.185Z,7.40
2019-04-29T19:47:20.754Z,7.03
2019-04-29T19:49:50.252Z,6.40
2019-04-29T19:52:30.502Z,5.93
2019-04-29T19:54:50.962Z,6.10
2019-04-29T19:57:20.487Z,7.67
2019-04-29T19:59:51.950Z,6.87
2019-04-29T20:02:22.173Z,6.70
2019-04-29T20:05:04.998Z,7.87
2019-04-29T20:07:40.905Z,6.67
2019-04-29T20:10:08.355Z,6.77
2019-04-29T20:12:36.948Z,6.83
2019-04-29T20:15:08.497Z,8.30
2019-04-29T20:18:06.558Z,9.60
2019-04-29T20:20:40.343Z,9.37
2019-04-29T20:23:10.211Z,11.17
2019-04-29T20:25:40.051Z,12.07
2019-04-29T20:28:17.042Z,12.10
2019-04-29T20:30:41.119Z,10.77
2019-04-29T20:33:12.648Z,9.60
2019-04-29T20:35:45.399Z,12.77
2019-04-29T20:38:15.550Z,11.30
2019-04-29T20:40:46.441Z,10.00
2019-04-29T20:43:16.230Z,11.87
2019-04-29T20:45:46.115Z,11.77
2019-04-29T20:48:19.370Z,11.90
2019-04-29T20:50:52.818Z,10.00
2019-04-29T20:53:30.889Z,13.23
2019-04-29T20:56:10.429Z,10.83
2019-04-29T20:58:33.224Z,10.30
2019-04-29T21:01:10.669Z,10.80
2019-04-29T21:03:36.071Z,11.23
2019-04-29T21:06:06.307Z,10.93
2019-04-29T21:08:35.958Z,10.67
2019-04-29T21:11:14.338Z,12.27
2019-04-29T21:13:55.596Z,11.20
2019-04-29T21:16:30.872Z,10.73
2019-04-29T21:19:08.820Z,15.93
2019-04-29T21:21:41.875Z,11.10
2019-04-29T21:24:13.720Z,13.27
2019-04-29T21:26:44.461Z,11.83
2019-04-29T21:29:18.121Z,14.30
2019-04-29T21:31:45.977Z,14.00
2019-04-29T21:34:17.494Z,12.50
2019-04-29T21:36:55.413Z,15.00
2019-04-29T21:39:37.915Z,15.97
2019-04-29T21:42:28.090Z,14.07
2019-04-29T21:44:58.696Z,15.37
2019-04-29T21:47:32.042Z,15.30
2019-04-29T21:49:59.161Z,12.33
2019-04-29T21:52:28.676Z,16.23
2019-04-29T21:54:58.201Z,15.07
2019-04-29T21:57:27.716Z,17.50
2019-04-29T21:59:57.244Z,12.43
2019-04-29T22:02:26.819Z,14.20
2019-04-29T22:04:56.408Z,17.23
2019-04-29T22:07:25.960Z,16.93
2019-04-29T22:09:55.708Z,15.80
2019-04-29T22:12:25.236Z,16.70
2019-04-29T22:14:56.441Z,16.30
2019-04-29T22:17:32.865Z,13.70
2019-04-29T22:20:03.946Z,15.80
2019-04-29T22:22:30.661Z,14.07
2019-04-29T22:25:07.988Z,13.83
2019-04-29T22:27:34.220Z,17.37
2019-04-29T22:30:03.055Z,16.17
2019-04-29T22:32:32.558Z,16.37
2019-04-29T22:35:02.069Z,18.73
2019-04-29T22:37:34.680Z,17.17
2019-04-29T22:40:04.379Z,16.20
2019-04-29T22:43:05.137Z,15.80
2019-04-29T22:45:33.845Z,17.63
2019-04-29T22:48:14.189Z,16.17
2019-04-29T22:50:33.706Z,16.60
2019-04-29T22:53:07.362Z,15.70
2019-04-29T22:55:38.795Z,16.77
2019-04-29T22:58:09.728Z,17.67
2019-04-29T23:00:38.664Z,21.33
2019-04-29T23:03:08.257Z,19.07
2019-04-29T23:05:38.031Z,18.37
2019-04-29T23:08:07.696Z,20.47
2019-04-29T23:10:37.213Z,21.63
2019-04-29T23:13:07.237Z,18.13
2019-04-29T23:15:36.750Z,23.20
2019-04-29T23:18:06.968Z,18.33
2019-04-29T23:20:55.345Z,18.13
2019-04-29T23:23:33.487Z,20.30
2019-04-29T23:26:04.157Z,19.67
2019-04-29T23:28:33.260Z,20.73
2019-04-29T23:31:02.877Z,21.33
2019-04-29T23:33:32.405Z,19.37
2019-04-29T23:36:01.913Z,23.27
2019-04-29T23:38:31.433Z,19.80
2019-04-29T23:41:00.948Z,19.00
2019-04-29T23:43:30.559Z,21.50
2019-04-29T23:46:00.652Z,17.97
2019-04-29T23:48:38.581Z,15.60
2019-04-29T23:51:01.556Z,20.37
2019-04-29T23:53:31.083Z,18.43
2019-04-29T23:56:05.590Z,21.73
2019-04-29T23:58:46.774Z,16.73
